sensor_id;sensor_type;location;lat;lon;timestamp;P1;P2;P0
47711;PMS7003;57457;51.634;5.886;2023-04-05T00:10:31;12.61;10.26;5.24
47711;PMS7003;57457;51.634;5.886;2023-04-05T00:23:53;13.33;11.35;5.68
47711;PMS7003;57457;51.634;5.886;2023-04-05T00:37:14;9.61;10.36;4.8
47711;PMS7003;57457;51.634;5.886;2023-04-05T00:50:34;11.17;13.09;5.57
47711;PMS7003;57457;51.634;5.886;2023-04-05T01:03:54;10.33;12.65;6.22
47711;PMS7003;57457;51.634;5.886;2023-04-05T01:17:14;11.05;12.54;5.9
47711;PMS7003;57457;51.634;5.886;2023-04-05T01:30:35;10.81;11.89;5.02
47711;PMS7003;57457;51.634;5.886;2023-04-05T01:43:55;10.57;10.91;4.91
47711;PMS7003;57457;51.634;5.886;2023-04-05T01:57:15;10.21;11.67;5.68
47711;PMS7003;57457;51.634;5.886;2023-04-05T02:10:36;13.21;13.31;5.79
47711;PMS7003;57457;51.634;5.886;2023-04-05T02:23:57;10.69;12.44;5.13
47711;PMS7003;57457;51.634;5.886;2023-04-05T02:37:17;10.21;12.0;5.9
47711;PMS7003;57457;51.634;5.886;2023-04-05T02:50:37;11.65;12.65;6.0
47711;PMS7003;57457;51.634;5.886;2023-04-05T03:03:58;11.53;12.76;5.68
47711;PMS7003;57457;51.634;5.886;2023-04-05T03:17:20;14.05;15.27;6.66
47711;PMS7003;57457;51.634;5.886;2023-04-05T03:30:39;14.89;14.4;6.0
47711;PMS7003;57457;51.634;5.886;2023-04-05T03:43:59;15.01;13.42;6.66
47711;PMS7003;57457;51.634;5.886;2023-04-05T03:57:19;15.13;16.03;6.88
47711;PMS7003;57457;51.634;5.886;2023-04-05T04:10:39;15.37;14.51;6.77
47711;PMS7003;57457;51.634;5.886;2023-04-05T04:24:00;17.29;15.16;6.77
47711;PMS7003;57457;51.634;5.886;2023-04-05T04:37:20;14.29;14.4;6.66
47711;PMS7003;57457;51.634;5.886;2023-04-05T04:50:41;16.09;15.16;7.2
47711;PMS7003;57457;51.634;5.886;2023-04-05T05:04:03;17.65;16.03;7.2
47711;PMS7003;57457;51.634;5.886;2023-04-05T05:17:24;19.09;15.38;7.31
47711;PMS7003;57457;51.634;5.886;2023-04-05T05:30:46;19.69;16.8;8.08
47711;PMS7003;57457;51.634;5.886;2023-04-05T05:44:07;15.97;16.14;7.31
47711;PMS7003;57457;51.634;5.886;2023-04-05T05:57:27;17.89;16.03;7.2
47711;PMS7003;57457;51.634;5.886;2023-04-05T06:10:48;18.37;18.54;8.84
47711;PMS7003;57457;51.634;5.886;2023-04-05T06:24:08;22.45;20.83;10.26
47711;PMS7003;57457;51.634;5.886;2023-04-05T06:37:28;22.57;20.28;9.6
47711;PMS7003;57457;51.634;5.886;2023-04-05T06:50:49;20.05;19.52;8.95
47711;PMS7003;57457;51.634;5.886;2023-04-05T07:04:11;16.93;17.78;8.29
47711;PMS7003;57457;51.634;5.886;2023-04-05T07:17:32;12.49;13.96;7.09
47711;PMS7003;57457;51.634;5.886;2023-04-05T07:30:52;14.05;15.05;7.31
47711;PMS7003;57457;51.634;5.886;2023-04-05T07:44:13;13.93;13.74;7.09
47711;PMS7003;57457;51.634;5.886;2023-04-05T07:57:35;15.25;14.62;7.2
47711;PMS7003;57457;51.634;5.886;2023-04-05T08:10:54;13.81;13.63;6.44
47711;PMS7003;57457;51.634;5.886;2023-04-05T08:24:14;11.53;13.09;6.66
47711;PMS7003;57457;51.634;5.886;2023-04-05T08:37:34;11.77;12.98;6.11
47711;PMS7003;57457;51.634;5.886;2023-04-05T08:50:54;12.13;12.0;5.9
47711;PMS7003;57457;51.634;5.886;2023-04-05T09:04:15;9.13;10.04;4.7
47711;PMS7003;57457;51.634;5.886;2023-04-05T09:17:36;5.53;7.97;4.15
47711;PMS7003;57457;51.634;5.886;2023-04-05T09:30:58;7.45;9.06;4.48
47711;PMS7003;57457;51.634;5.886;2023-04-05T09:44:19;7.09;9.38;4.48
47711;PMS7003;57457;51.634;5.886;2023-04-05T09:57:39;10.69;8.95;4.8
47711;PMS7003;57457;51.634;5.886;2023-04-05T10:24:20;6.25;8.84;4.7
47711;PMS7003;57457;51.634;5.886;2023-04-05T10:37:42;6.49;8.95;4.48
47711;PMS7003;57457;51.634;5.886;2023-04-05T10:51:03;5.17;7.42;4.15
47711;PMS7003;57457;51.634;5.886;2023-04-05T11:04:23;6.97;9.27;4.59
47711;PMS7003;57457;51.634;5.886;2023-04-05T11:17:44;8.77;8.4;4.48
47711;PMS7003;57457;51.634;5.886;2023-04-05T11:31:05;5.41;7.75;4.15
47711;PMS7003;57457;51.634;5.886;2023-04-05T11:44:27;6.13;8.62;4.37
47711;PMS7003;57457;51.634;5.886;2023-04-05T11:57:48;5.89;8.51;4.59
47711;PMS7003;57457;51.634;5.886;2023-04-05T12:11:09;6.73;9.17;4.48
47711;PMS7003;57457;51.634;5.886;2023-04-05T12:24:31;7.45;8.73;4.7
47711;PMS7003;57457;51.634;5.886;2023-04-05T12:37:51;6.61;9.27;4.48
47711;PMS7003;57457;51.634;5.886;2023-04-05T12:51:11;7.09;9.49;4.8
47711;PMS7003;57457;51.634;5.886;2023-04-05T13:04:30;7.57;8.84;4.91
47711;PMS7003;57457;51.634;5.886;2023-04-05T13:17:52;5.89;8.51;4.48
47711;PMS7003;57457;51.634;5.886;2023-04-05T13:31:13;7.21;9.71;4.7
47711;PMS7003;57457;51.634;5.886;2023-04-05T13:44:33;8.29;10.47;5.02
47711;PMS7003;57457;51.634;5.886;2023-04-05T13:57:54;8.29;10.04;4.59
47711;PMS7003;57457;51.634;5.886;2023-04-05T14:11:16;6.37;8.84;4.91
47711;PMS7003;57457;51.634;5.886;2023-04-05T14:24:37;6.01;8.73;4.26
47711;PMS7003;57457;51.634;5.886;2023-04-05T14:37:57;6.49;8.73;4.48
47711;PMS7003;57457;51.634;5.886;2023-04-05T14:51:17;6.13;8.84;4.48
47711;PMS7003;57457;51.634;5.886;2023-04-05T15:04:38;6.73;9.38;4.59
47711;PMS7003;57457;51.634;5.886;2023-04-05T15:17:58;6.25;8.62;4.37
47711;PMS7003;57457;51.634;5.886;2023-04-05T15:31:19;6.01;8.29;4.15
47711;PMS7003;57457;51.634;5.886;2023-04-05T15:44:39;6.73;9.27;4.48
47711;PMS7003;57457;51.634;5.886;2023-04-05T15:57:59;8.17;9.06;4.59
47711;PMS7003;57457;51.634;5.886;2023-04-05T16:11:20;6.61;8.51;4.15
47711;PMS7003;57457;51.634;5.886;2023-04-05T16:24:41;6.61;9.27;4.37
47711;PMS7003;57457;51.634;5.886;2023-04-05T16:38:03;8.29;9.38;4.15
47711;PMS7003;57457;51.634;5.886;2023-04-05T16:51:23;6.73;8.95;4.59
47711;PMS7003;57457;51.634;5.886;2023-04-05T17:04:44;7.81;9.27;4.37
47711;PMS7003;57457;51.634;5.886;2023-04-05T17:18:04;8.89;10.47;4.8
47711;PMS7003;57457;51.634;5.886;2023-04-05T17:31:25;9.01;11.13;5.35
47711;PMS7003;57457;51.634;5.886;2023-04-05T17:44:45;9.37;10.91;5.24
47711;PMS7003;57457;51.634;5.886;2023-04-05T17:58:06;8.53;10.8;5.24
47711;PMS7003;57457;51.634;5.886;2023-04-05T18:11:28;8.17;10.26;5.13
47711;PMS7003;57457;51.634;5.886;2023-04-05T18:24:48;10.45;12.33;5.68
47711;PMS7003;57457;51.634;5.886;2023-04-05T18:38:08;12.97;12.11;5.68
47711;PMS7003;57457;51.634;5.886;2023-04-05T18:51:27;10.57;12.44;6.11
47711;PMS7003;57457;51.634;5.886;2023-04-05T19:04:47;10.45;11.45;5.13
47711;PMS7003;57457;51.634;5.886;2023-04-05T19:18:07;11.65;11.13;5.46
47711;PMS7003;57457;51.634;5.886;2023-04-05T19:31:27;9.01;11.02;5.24
47711;PMS7003;57457;51.634;5.886;2023-04-05T19:44:47;9.73;11.45;5.46
47711;PMS7003;57457;51.634;5.886;2023-04-05T19:58:06;11.77;11.67;5.9
47711;PMS7003;57457;51.634;5.886;2023-04-05T20:11:26;11.29;13.09;6.77
47711;PMS7003;57457;51.634;5.886;2023-04-05T20:24:46;12.13;13.85;6.44
47711;PMS7003;57457;51.634;5.886;2023-04-05T20:38:06;13.33;15.05;7.42
47711;PMS7003;57457;51.634;5.886;2023-04-05T20:51:26;13.69;15.27;7.53
47711;PMS7003;57457;51.634;5.886;2023-04-05T21:04:47;14.89;15.6;7.31
47711;PMS7003;57457;51.634;5.886;2023-04-05T21:18:07;12.61;14.72;7.64
47711;PMS7003;57457;51.634;5.886;2023-04-05T21:31:28;16.33;16.03;7.31
47711;PMS7003;57457;51.634;5.886;2023-04-05T21:44:48;18.25;16.36;7.09
47711;PMS7003;57457;51.634;5.886;2023-04-05T21:58:09;14.65;16.14;7.53
47711;PMS7003;57457;51.634;5.886;2023-04-05T22:11:29;18.25;18.43;7.75
47711;PMS7003;57457;51.634;5.886;2023-04-05T22:38:09;17.77;16.8;7.75
47711;PMS7003;57457;51.634;5.886;2023-04-05T22:51:28;16.93;15.71;7.53
47711;PMS7003;57457;51.634;5.886;2023-04-05T23:04:50;17.05;16.25;6.99
47711;PMS7003;57457;51.634;5.886;2023-04-05T23:18:11;16.33;17.01;7.75
47711;PMS7003;57457;51.634;5.886;2023-04-05T23:31:31;15.61;16.58;7.31
47711;PMS7003;57457;51.634;5.886;2023-04-05T23:44:51;16.45;14.94;6.55
47711;PMS7003;57457;51.634;5.886;2023-04-05T23:58:12;19.93;17.67;7.42
